• Join FlightAware (Why Join?)
  • Login
  • US Flag 
08:13AM EDT


 

Airport Tracker/Info


-or-


 

Live Flight TrackerFlight Track Log ✈ GPD95 ✈ 16-Oct-2013 ✈ MBPV / PLS - TJSJ / SJU

Flight Track Log - Related Links

Times and Time Zones

All times are in EDT time to prevent confusion due to time zone crossing. See the GPD95 flight status page for this flight to view local times or setup timezone preferences in your user account.

Time Position Orientation Groundspeed Altitude Reporting Facility
EDT Latitude Longitude Course Direction KTS MPH feet Rate Location/Type
04:40PM 21.7453 -72.3089 154° Southeast 174 200 2,100  Level Miami Center
04:41PM 21.7217 -72.2850 137° Southeast 152 175 2,600 540 Climbing Miami Center
04:42PM 21.6956 -72.2569 135° Southeast 135 155 3,200 540 Climbing Miami Center
04:43PM 21.6697 -72.2286 134° Southeast 135 155 3,700 480 Climbing Miami Center
04:44PM 21.6462 -72.0131 140° Southeast  Level Estimated
04:44PM 21.6439 -72.2028 137° Southeast 130 150 4,200  Level Miami Center
04:45PM 21.6061 -71.9922 154° Southeast  Level FlightAware Approximate
04:45PM 21.6181 -72.1747 135° Southeast 130 150 4,700  Level Miami Center
04:46PM 21.5922 -72.1511 140° Southeast 125 144 5,200 480 Climbing Miami Center
04:47PM 21.5706 -72.1228 129° Southeast 120 138 5,700 480 Climbing Miami Center
04:48PM 21.5411 -72.1106 159° South 120 138 6,200 480 Climbing Miami Center
04:49PM 21.5153 -72.0936 149° Southeast 115 132 6,700 540 Climbing Miami Center
04:50PM 21.4936 -72.0631 127° Southeast 120 138 7,300 540 Climbing Miami Center
04:51PM 21.4656 -72.0353 137° Southeast 126 145 7,800 480 Climbing Miami Center
04:52PM 21.4439 -72.0047 127° Southeast 131 151 8,300 480 Climbing Miami Center
04:53PM 21.4197 -71.9744 131° Southeast 131 151 8,800 360 Climbing Miami Center
04:54PM 21.3939 -71.9442 132° Southeast 131 151 9,100 120 Climbing Miami Center
04:55PM 21.3614 -71.9097 135° Southeast 143 165 9,100  Level Miami Center
04:56PM 21.3211 -71.8867 152° Southeast 156 180 9,100  Level Miami Center
04:57PM 21.2886 -71.8544 137° Southeast 161 185 9,100  Level Miami Center
04:58PM 21.2583 -71.8178 132° Southeast 166 191 9,100  Level Miami Center
04:59PM 21.2214 -71.7725 131° Southeast 171 197 9,100  Level Miami Center
05:00PM 21.1908 -71.7358 132° Southeast 171 197 9,100  Level Miami Center
05:01PM 21.1606 -71.6969 130° Southeast 166 191 9,100  Level Miami Center
05:02PM 21.1300 -71.6603 132° Southeast 166 191 9,100  Level Miami Center
05:03PM 21.1061 -71.6281 128° Southeast 161 185 9,100  Level Miami Center
05:04PM 21.0669 -71.5850 134° Southeast 161 185 9,100  Level Miami Center
05:05PM 21.0364 -71.5461 130° Southeast 161 185 9,100  Level Miami Center
05:06PM 21.0061 -71.5097 132° Southeast 161 185 9,100  Level Miami Center
05:07PM 20.9756 -71.4731 132° Southeast 161 185 9,100  Level Miami Center
05:08PM 20.9450 -71.4344 130° Southeast 161 185 9,100  Level Miami Center
05:09PM 20.9125 -71.3978 133° Southeast 161 185 9,100  Level Miami Center
05:10PM 20.8819 -71.3592 130° Southeast 161 185 9,100  Level Miami Center
05:11PM 20.8514 -71.3228 132° Southeast 161 185 9,100  Level Miami Center
05:12PM 20.8208 -71.2842 130° Southeast 161 185 9,100  Level Miami Center
05:13PM 20.7881 -71.2478 134° Southeast 161 185 9,100  Level Miami Center
05:14PM 20.7575 -71.2092 130° Southeast 161 185 9,100  Level Miami Center
05:15PM 20.7269 -71.1728 132° Southeast 161 185 9,100  Level Miami Center
05:16PM 20.6964 -71.1364 132° Southeast 161 185 9,100  Level Miami Center
05:17PM 20.6639 -71.0978 132° Southeast 161 185 9,100  Level Miami Center
05:18PM 20.6333 -71.0614 132° Southeast 161 185 9,100  Level Miami Center
05:19PM 20.6047 -71.0228 128° Southeast 161 185 9,100  Level Miami Center
05:20PM 20.5742 -70.9886 134° Southeast 161 185 9,100  Level Miami Center
05:21PM 20.5436 -70.9522 132° Southeast 161 185 9,100  Level Miami Center
05:22PM 20.5153 -70.9158 130° Southeast 161 185 9,100  Level Miami Center
05:23PM 20.4847 -70.8819 134° Southeast 161 185 9,100  Level Miami Center
05:24PM 20.4542 -70.8456 132° Southeast 161 185 9,100  Level Miami Center
05:25PM 20.4236 -70.8094 132° Southeast 161 185 9,100 -60 Level Miami Center
05:27PM 20.3594 -70.7646 163° South  Level FlightAware Approximate
05:34PM 20.0485 -70.6634 163° South  Level FlightAware Approximate
05:35PM 20.0040 -70.6490 163° South  Level FlightAware Approximate
05:36PM 19.9596 -70.6346 163° South  Level FlightAware Approximate
05:37PM 19.9152 -70.6202 163° South  Level FlightAware Approximate
05:38PM 19.8708 -70.6058 163° South  Level FlightAware Approximate
05:39PM 19.8263 -70.5914 163° South  Level FlightAware Approximate
05:40PM 19.7819 -70.5770 163° South  Level FlightAware Approximate
05:41PM 19.7455 -70.5536 110° East  Level FlightAware Approximate
05:42PM 19.7294 -70.5073 110° East  Level FlightAware Approximate
05:43PM 19.7132 -70.4611 110° East  Level FlightAware Approximate
05:44PM 19.6971 -70.4148 110° East  Level FlightAware Approximate
05:45PM 19.6810 -70.3685 110° East  Level FlightAware Approximate
05:46PM 19.6648 -70.3223 110° East  Level FlightAware Approximate
05:47PM 19.6487 -70.2760 110° East  Level FlightAware Approximate
05:48PM 19.6325 -70.2298 110° East  Level FlightAware Approximate
05:49PM 19.6163 -70.1836 110° East  Level FlightAware Approximate
05:50PM 19.6001 -70.1374 110° East  Level FlightAware Approximate
05:51PM 19.5839 -70.0912 110° East  Level FlightAware Approximate
05:52PM 19.5677 -70.0450 110° East  Level FlightAware Approximate
05:53PM 19.5515 -69.9988 110° East  Level FlightAware Approximate
05:54PM 19.5352 -69.9526 110° East  Level FlightAware Approximate
05:55PM 19.5189 -69.9065 110° East  Level FlightAware Approximate
05:56PM 19.5023 -69.8605 111° Southeast  Level FlightAware Approximate
05:57PM 19.4856 -69.8145 111° Southeast  Level FlightAware Approximate
05:58PM 19.4689 -69.7685 111° Southeast  Level FlightAware Approximate
05:59PM 19.4522 -69.7226 111° Southeast  Level FlightAware Approximate
06:00PM 19.4357 -69.6765 111° Southeast  Level FlightAware Approximate
06:01PM 19.4193 -69.6304 111° Southeast  Level FlightAware Approximate
06:02PM 19.4029 -69.5844 111° Southeast  Level FlightAware Approximate
06:03PM 19.3865 -69.5383 111° Southeast  Level FlightAware Approximate
06:04PM 19.3700 -69.4922 111° Southeast  Level FlightAware Approximate
06:05PM 19.3536 -69.4462 111° Southeast  Level FlightAware Approximate
06:06PM 19.3371 -69.4002 111° Southeast  Level FlightAware Approximate
06:07PM 19.3207 -69.3541 111° Southeast  Level FlightAware Approximate
06:08PM 19.3042 -69.3081 111° Southeast  Level FlightAware Approximate
06:08PM 19.3333 -69.2667 110° East 170 196 9,000  Level San Juan Center
06:09PM 19.2877 -69.2621 111° Southeast  Level FlightAware Approximate
06:09PM 19.3333 -69.2167 90° East 170 196 9,000  Level San Juan Center
06:10PM 19.2714 -69.2161 110° East  Level FlightAware Approximate
06:10PM 19.3167 -69.1667 109° East 170 196 9,000  Level San Juan Center
06:11PM 19.2551 -69.1700 110° East  Level FlightAware Approximate
06:11PM 19.3167 -69.1167 90° East 160 184 9,000  Level San Juan Center
06:12PM 19.2389 -69.1239 110° East  Level FlightAware Approximate
06:12PM 19.3167 -69.0667 90° East 180 207 9,000  Level San Juan Center
06:13PM 19.2226 -69.0778 110° East  Level FlightAware Approximate
06:13PM 19.3167 -69.0167 90° East 170 196 9,000  Level San Juan Center
06:14PM 19.3167 -68.9667 90° East 160 184 9,000  Level San Juan Center
06:15PM 19.3167 -68.9167 90° East 150 173 9,000  Level San Juan Center
06:16PM 19.3167 -68.8667 90° East 160 184 9,000  Level San Juan Center
06:17PM 19.3000 -68.8167 109° East 160 184 9,000  Level San Juan Center
06:18PM 19.3000 -68.7667 90° East 170 196 9,000  Level San Juan Center
06:19PM 19.2833 -68.7167 109° East 170 196 9,000  Level San Juan Center
06:20PM 19.2667 -68.6833 118° Southeast 160 184 9,000  Level San Juan Center
06:21PM 19.2333 -68.6333 125° Southeast 170 196 9,000  Level San Juan Center
06:22PM 19.2167 -68.6000 118° Southeast 160 184 9,000  Level San Juan Center
06:23PM 19.2000 -68.5500 109° East 160 184 9,000  Level San Juan Center
06:24PM 19.1667 -68.5167 137° Southeast 160 184 9,000  Level San Juan Center
06:25PM 19.1500 -68.4833 118° Southeast 160 184 9,000  Level San Juan Center
06:26PM 19.1167 -68.4333 125° Southeast 170 196 9,000  Level San Juan Center
06:27PM 19.0833 -68.4000 137° Southeast 160 184 9,000  Level San Juan Center
06:28PM 19.0667 -68.3667 118° Southeast 160 184 9,000  Level San Juan Center
06:29PM 19.0500 -68.3333 118° Southeast 150 173 9,000  Level San Juan Center
06:30PM 19.0167 -68.2833 125° Southeast 160 184 9,000  Level San Juan Center
06:31PM 19.0000 -68.2500 118° Southeast 150 173 9,000  Level San Juan Center
06:32PM 18.9667 -68.2167 137° Southeast 160 184 9,000  Level San Juan Center
06:33PM 18.9333 -68.1667 125° Southeast 150 173 9,000  Level San Juan Center
06:34PM 18.9167 -68.1333 118° Southeast 150 173 9,000  Level San Juan Center
06:35PM 18.8833 -68.1000 137° Southeast 150 173 9,000  Level San Juan Center
06:36PM 18.8667 -68.0500 109° East 160 184 9,000  Level San Juan Center
06:37PM 18.8333 -68.0167 137° Southeast 160 184 9,000  Level San Juan Center
06:38PM 18.8167 -67.9833 118° Southeast 160 184 9,000  Level San Juan Center
06:39PM 18.8000 -67.9333 109° East 160 184 9,000  Level San Juan Center
06:40PM 18.7833 -67.8833 109° East 160 184 9,000  Level San Juan Center
06:41PM 18.7667 -67.8500 118° Southeast 160 184 9,000  Level San Juan Center
06:42PM 18.7500 -67.8000 109° East 170 196 9,000  Level San Juan Center
06:43PM 18.7333 -67.7500 109° East 160 184 9,000  Level San Juan Center
06:44PM 18.7167 -67.7167 118° Southeast 160 184 9,000  Level San Juan Center
06:45PM 18.7000 -67.6667 109° East 170 196 9,000  Level San Juan Center
06:46PM 18.6833 -67.6333 118° Southeast 160 184 9,000  Level San Juan Center
06:47PM 18.6667 -67.5833 109° East 170 196 9,000  Level San Juan Center
06:48PM 18.6500 -67.5333 109° East 160 184 9,000  Level San Juan Center
06:49PM 18.6333 -67.5000 118° Southeast 160 184 9,000  Level San Juan Center
06:50PM 18.6167 -67.4500 109° East 160 184 9,000  Level San Juan Center
06:51PM 18.6000 -67.4000 109° East 170 196 9,000  Level San Juan Center
06:52PM 18.5833 -67.3500 109° East 160 184 9,000  Level San Juan Center
06:53PM 18.5667 -67.3000 109° East 170 196 9,000  Level San Juan Center
06:54PM 18.5500 -67.2667 118° Southeast 160 184 9,000  Level San Juan Center
06:55PM 18.5333 -67.2167 109° East 160 184 9,000  Level San Juan Center
06:56PM 18.5167 -67.1667 109° East 170 196 9,000 -60 Level San Juan Center
06:57PM 18.5000 -67.1333 118° Southeast 180 207 8,900 -300 Descending San Juan Center
06:58PM 18.4833 -67.0667 105° East 180 207 8,400 -480 Descending San Juan Center
06:59PM 18.4833 -67.0167 90° East 170 196 8,000 -420 Descending San Juan Center
07:00PM 18.4833 -66.9833 90° East 160 184 7,600 -540 Descending San Juan Center
07:01PM 18.4833 -66.9333 90° East 180 207 7,000 -300 Descending San Juan Center
07:02PM 18.4833 -66.8833 90° East 170 196 7,000  Level San Juan Center
07:03PM 18.4833 -66.8333 90° East 160 184 7,000  Level San Juan Center
07:04PM 18.4667 -66.7833 109° East 160 184 7,100  Climbing San Juan Center
07:05PM 18.4667 -66.7333 90° East 160 184 7,100  Level San Juan Center
07:06PM 18.4667 -66.6833 90° East 160 184 7,100 -180 Level San Juan Center
07:07PM 18.4667 -66.6333 90° East 170 196 6,800 -420 Descending San Juan Center
07:08PM 18.4500 -66.5833 109° East 180 207 6,300 -540 Descending San Juan Center
07:09PM 18.4333 -66.5333 109° East 190 219 5,800 -540 Descending San Juan Center
07:10PM 18.4333 -66.4833 90° East 180 207 5,300 -540 Descending San Juan Center
07:11PM 18.4167 -66.4333 109° East 170 196 4,800 -600 Descending San Juan Center
07:12PM 18.4333 -66.3833 71° East 170 196 4,200 -600 Descending San Juan Center
07:13PM 18.4167 -66.3333 109° East 170 196 3,600 -720 Descending San Juan Center
07:14PM 18.4333 -66.2833 71° East 170 196 2,800 -780 Descending San Juan Center
07:15PM 18.4333 -66.2333 90° East 170 196 2,100 -480 Descending San Juan Center
07:16PM 18.4333 -66.1833 90° East 160 184 1,900 -60 Descending San Juan Center
07:17PM 18.4333 -66.1500 90° East 140 161 2,000 -120 Climbing San Juan Center
07:18PM 18.4333 -66.1000 90° East 150 173 1,700 -360 Descending San Juan Center
07:19PM 18.4333 -66.0667 90° East 110 127 1,300 -540 Descending San Juan Center
07:20PM 18.4333 -66.0333 90° East 100 115 700 -480 Descending San Juan Center
07:21PM 18.4333 -66.0167 90° East 70 81 400 -300 Descending San Juan Center